EGLC

London City Airport

London, United Kingdom
METAR EGLC 171020Z AUTO 26021G33KT 9999 NCD 06/M01 Q1006
Observed Flight Rules
Jan-17 @ 10:20 UTC (20 minutes ago) Visual Flight Rules
Wind Visibility Clouds
260° at 21 knots
 Gusting to 33 knots
10,000+ meters
  • Clear skies
Temperatures Readings
Current 6°C / 43°F
Dewpoint -1°C / 30°F
Humidity 61%
Altimeter 29.7" Hg
Pressure 1006 hPa
Elevation 5
METAR EGLC 171020Z AUTO 26021G33KT 9999 NCD 06/M01 Q1006
Observed Flight Rules
Jan-17 @ 10:20 UTC
(20 minutes ago)
VFR
Wind Visibility
260° at 21 knots
 Gusting to 33 knots
10,000+ meters
Clouds
  • Clear skies
Temperature Dewpoint
6°C / 43°F -1°C / 30°F
Humidity Altimeter Pressure
61% 29.7" Hg 1006 hPa